Time;durP1;ratioP1;P1;durP2;ratioP2;P2;SDS_P1;SDS_P2;PMS_P1;PMS_P2;Temp;Humidity;BMP_temperature;BMP_pressure;BME280_temperature;BME280_humidity;BME280_pressure;Samples;Min_cycle;Max_cycle;Signal;HPM_P1;HPM_P2
2022/03/27 00:00:34;;;;;;;11.88;6.53;;;;;;;;;;6147231;23;20025;-79
2022/03/27 00:03:02;;;;;;;13.50;8.90;;;;;;;;;;6157555;23;20013;-79
2022/03/27 00:05:30;;;;;;;16.20;6.88;;;;;;;;;;6151801;23;20637;-79
2022/03/27 00:07:58;;;;;;;9.90;4.15;;;;;;;;;;6156925;23;20811;-79
2022/03/27 00:10:26;;;;;;;13.20;6.28;;;;;;;;;;6147806;23;20029;-80
2022/03/27 00:12:54;;;;;;;10.00;6.20;;;;;;;;;;6154258;23;20334;-79
2022/03/27 00:15:22;;;;;;;10.48;7.38;;;;;;;;;;6157845;23;20029;-79
2022/03/27 00:17:50;;;;;;;18.17;8.90;;;;;;;;;;6149544;23;20033;-79
2022/03/27 00:20:18;;;;;;;14.30;8.02;;;;;;;;;;6156736;23;20025;-79
2022/03/27 00:22:46;;;;;;;12.52;5.97;;;;;;;;;;6156924;23;20729;-79
2022/03/27 00:25:14;;;;;;;18.90;11.23;;;;;;;;;;6152475;23;20029;-79
2022/03/27 00:27:42;;;;;;;11.30;6.13;;;;;;;;;;6130937;23;20014;-79
2022/03/27 00:30:10;;;;;;;9.25;6.88;;;;;;;;;;6122364;23;20025;-79
2022/03/27 00:32:38;;;;;;;10.95;6.50;;;;;;;;;;6128710;23;20036;-79
2022/03/27 00:35:08;;;;;;;11.55;6.32;;;;;;;;;;6156606;23;20017;-79
2022/03/27 00:37:39;;;;;;;15.02;8.80;;;;;;;;;;6145913;23;20036;-79
2022/03/27 00:40:09;;;;;;;11.73;5.75;;;;;;;;;;6157168;23;20017;-79
2022/03/27 00:42:37;;;;;;;9.32;5.63;;;;;;;;;;6146291;23;20032;-79
2022/03/27 00:45:06;;;;;;;15.68;9.15;;;;;;;;;;6153577;23;20032;-79
2022/03/27 00:47:34;;;;;;;10.75;6.40;;;;;;;;;;6156729;23;20188;-79
2022/03/27 00:50:02;;;;;;;14.93;7.60;;;;;;;;;;6149102;23;20025;-79
2022/03/27 00:52:30;;;;;;;20.48;9.93;;;;;;;;;;6154810;23;20013;-79
2022/03/27 00:54:58;;;;;;;10.75;7.22;;;;;;;;;;6157064;23;20480;-79
2022/03/27 00:57:26;;;;;;;11.63;6.85;;;;;;;;;;6151664;23;20037;-79
2022/03/27 00:59:54;;;;;;;12.85;8.95;;;;;;;;;;6150212;23;20022;-79
2022/03/27 01:02:22;;;;;;;15.23;8.40;;;;;;;;;;6147721;23;20082;-79
2022/03/27 01:05:13;;;;;;;10.70;6.13;;;;;;;;;;6120573;23;20448;-79
2022/03/27 01:12:35;;;;;;;7.88;4.57;;;;;;;;;;6157354;23;20039;-79
2022/03/27 01:15:57;;;;;;;6.80;4.28;;;;;;;;;;6117705;23;20032;-79
2022/03/27 01:19:22;;;;;;;6.82;5.43;;;;;;;;;;6153031;23;20036;-79
2022/03/27 01:22:50;;;;;;;8.75;7.45;;;;;;;;;;6130060;23;20022;-79
2022/03/27 01:25:54;;;;;;;15.88;11.95;;;;;;;;;;6150007;23;20025;-79
2022/03/27 01:28:23;;;;;;;8.85;5.97;;;;;;;;;;6155090;23;20028;-79
2022/03/27 01:30:51;;;;;;;11.73;6.43;;;;;;;;;;6157312;23;20018;-79
2022/03/27 01:33:19;;;;;;;14.90;8.82;;;;;;;;;;6151849;23;20461;-79
2022/03/27 01:35:47;;;;;;;12.20;5.80;;;;;;;;;;6157365;23;20025;-79
2022/03/27 01:38:15;;;;;;;9.27;5.45;;;;;;;;;;6147353;23;20040;-79
2022/03/27 01:40:43;;;;;;;8.00;5.93;;;;;;;;;;6154877;23;20049;-79
2022/03/27 01:43:11;;;;;;;8.23;6.82;;;;;;;;;;6157757;23;20512;-79
2022/03/27 01:45:41;;;;;;;20.42;6.47;;;;;;;;;;6151200;23;20036;-79
2022/03/27 01:48:09;;;;;;;13.98;6.18;;;;;;;;;;6130363;23;20024;-79
2022/03/27 01:50:36;;;;;;;16.23;8.00;;;;;;;;;;6147364;23;20737;-79
2022/03/27 01:53:04;;;;;;;18.30;7.13;;;;;;;;;;6152115;23;20026;-79
2022/03/27 01:55:34;;;;;;;10.48;6.32;;;;;;;;;;6129795;23;20018;-79
2022/03/27 01:58:08;;;;;;;10.45;6.43;;;;;;;;;;6145906;23;20037;-79
2022/03/27 02:00:36;;;;;;;8.40;6.82;;;;;;;;;;6146768;23;20025;-79
2022/03/27 02:03:04;;;;;;;14.50;6.28;;;;;;;;;;6157003;23;20021;-79
2022/03/27 02:05:32;;;;;;;10.20;5.40;;;;;;;;;;6151363;23;20033;-79
2022/03/27 02:08:00;;;;;;;12.02;5.97;;;;;;;;;;6155713;23;20020;-79
2022/03/27 02:10:48;;;;;;;6.35;4.97;;;;;;;;;;6153333;23;20029;-79
2022/03/27 02:13:21;;;;;;;8.43;4.47;;;;;;;;;;6152028;23;20022;-79
2022/03/27 02:15:50;;;;;;;9.63;6.65;;;;;;;;;;6158834;23;20017;-79
2022/03/27 02:18:18;;;;;;;16.55;6.60;;;;;;;;;;6148791;23;20337;-79
2022/03/27 02:20:46;;;;;;;6.25;4.57;;;;;;;;;;6156412;23;20025;-79
2022/03/27 02:23:14;;;;;;;12.95;5.30;;;;;;;;;;6158303;23;20014;-79
2022/03/27 02:25:42;;;;;;;9.45;5.65;;;;;;;;;;6152216;23;20026;-79
2022/03/27 02:28:10;;;;;;;10.05;5.50;;;;;;;;;;6158249;23;20013;-79
2022/03/27 02:30:38;;;;;;;9.55;4.50;;;;;;;;;;6147958;23;20034;-79
2022/03/27 02:33:06;;;;;;;8.77;5.80;;;;;;;;;;6153753;23;20467;-78
2022/03/27 02:35:34;;;;;;;37.38;7.72;;;;;;;;;;6158995;23;20013;-79
2022/03/27 02:38:07;;;;;;;8.30;6.20;;;;;;;;;;6123894;23;20074;-79
2022/03/27 02:40:35;;;;;;;17.55;7.10;;;;;;;;;;6156993;23;20022;-79
2022/03/27 02:43:05;;;;;;;6.43;5.82;;;;;;;;;;6158927;23;20017;-79
2022/03/27 02:45:38;;;;;;;11.50;7.20;;;;;;;;;;6147926;23;20022;-79
2022/03/27 02:48:07;;;;;;;9.38;5.38;;;;;;;;;;6158319;23;20021;-79
2022/03/27 02:50:37;;;;;;;11.27;6.75;;;;;;;;;;6122652;23;20036;-79
2022/03/27 02:53:05;;;;;;;16.77;7.88;;;;;;;;;;6153648;23;20030;-79
2022/03/27 02:55:33;;;;;;;8.10;6.57;;;;;;;;;;6158548;23;20021;-79
2022/03/27 02:58:01;;;;;;;12.27;6.32;;;;;;;;;;6149037;23;20034;-79
2022/03/27 03:00:29;;;;;;;9.20;5.28;;;;;;;;;;6148665;23;20030;-78
2022/03/27 03:02:57;;;;;;;14.13;6.95;;;;;;;;;;6158351;23;20010;-79
2022/03/27 03:05:26;;;;;;;10.00;5.60;;;;;;;;;;6152618;23;20033;-79
2022/03/27 03:07:54;;;;;;;6.85;5.90;;;;;;;;;;6157370;23;20013;-79
2022/03/27 03:10:22;;;;;;;8.98;6.32;;;;;;;;;;6122273;23;20021;-79
2022/03/27 03:12:50;;;;;;;13.13;7.07;;;;;;;;;;6155040;23;20029;-79
2022/03/27 03:15:18;;;;;;;6.65;4.35;;;;;;;;;;6158328;23;20018;-79
2022/03/27 03:17:46;;;;;;;11.38;6.63;;;;;;;;;;6150887;23;20373;-79
2022/03/27 03:20:33;;;;;;;6.90;4.55;;;;;;;;;;6157624;23;20025;-79
2022/03/27 03:24:05;;;;;;;15.18;8.15;;;;;;;;;;6157671;23;20024;-79
2022/03/27 03:27:37;;;;;;;9.52;4.82;;;;;;;;;;6154276;23;20030;-79
2022/03/27 03:31:06;;;;;;;24.40;8.63;;;;;;;;;;6153571;23;20025;-79
2022/03/27 03:34:31;;;;;;;11.65;7.60;;;;;;;;;;6148339;23;20033;-79
2022/03/27 03:37:24;;;;;;;12.20;8.13;;;;;;;;;;6151854;23;20331;-79
2022/03/27 03:39:52;;;;;;;8.57;7.10;;;;;;;;;;6157615;23;20017;-79
2022/03/27 03:42:19;;;;;;;10.23;4.85;;;;;;;;;;6148767;23;20536;-79
2022/03/27 03:44:47;;;;;;;14.52;8.57;;;;;;;;;;6155034;23;20033;-79
2022/03/27 03:47:15;;;;;;;12.13;7.15;;;;;;;;;;6157090;23;20014;-79
2022/03/27 03:49:43;;;;;;;10.95;6.57;;;;;;;;;;6150438;23;20029;-78
2022/03/27 03:52:11;;;;;;;17.17;8.27;;;;;;;;;;6157588;23;20013;-78
2022/03/27 03:54:39;;;;;;;15.55;9.02;;;;;;;;;;6146108;23;20032;-78
2022/03/27 03:57:08;;;;;;;11.55;6.43;;;;;;;;;;6153361;23;20623;-78
2022/03/27 03:59:36;;;;;;;12.07;5.40;;;;;;;;;;6151780;23;20036;-78
2022/03/27 04:02:08;;;;;;;15.68;7.38;;;;;;;;;;6149554;23;20025;-78
2022/03/27 04:04:36;;;;;;;15.57;6.53;;;;;;;;;;6151397;23;20024;-78
2022/03/27 04:07:04;;;;;;;12.90;7.63;;;;;;;;;;6157949;23;20021;-78
2022/03/27 04:09:32;;;;;;;15.70;7.90;;;;;;;;;;6119678;23;20029;-78
2022/03/27 04:12:01;;;;;;;16.27;7.93;;;;;;;;;;6157834;23;20020;-78
2022/03/27 04:14:29;;;;;;;15.57;7.40;;;;;;;;;;6096877;23;20036;-78
2022/03/27 04:16:57;;;;;;;17.35;7.15;;;;;;;;;;6121113;23;20026;-78
2022/03/27 04:19:25;;;;;;;16.75;7.93;;;;;;;;;;6157512;23;20024;-78
2022/03/27 04:21:53;;;;;;;10.60;7.68;;;;;;;;;;6150246;23;20342;-78
2022/03/27 04:24:21;;;;;;;9.57;7.30;;;;;;;;;;6155290;23;20018;-78
2022/03/27 04:26:49;;;;;;;7.50;5.68;;;;;;;;;;6157955;23;20032;-78
2022/03/27 04:29:17;;;;;;;18.95;6.57;;;;;;;;;;6152084;23;20025;-78
2022/03/27 04:31:45;;;;;;;13.65;9.27;;;;;;;;;;6157628;23;20641;-78
2022/03/27 04:34:13;;;;;;;9.40;6.40;;;;;;;;;;6148239;23;20025;-78
2022/03/27 04:36:41;;;;;;;14.23;6.82;;;;;;;;;;6155295;23;20353;-78
2022/03/27 04:39:09;;;;;;;20.45;14.32;;;;;;;;;;6155699;23;20020;-78
2022/03/27 04:41:37;;;;;;;11.85;5.97;;;;;;;;;;6150786;23;20032;-78
2022/03/27 04:44:07;;;;;;;12.80;9.23;;;;;;;;;;6156465;23;20017;-78
2022/03/27 04:46:35;;;;;;;22.10;11.90;;;;;;;;;;6146879;23;20029;-78
2022/03/27 04:49:04;;;;;;;13.57;8.75;;;;;;;;;;6152633;23;20033;-78
2022/03/27 04:51:33;;;;;;;13.60;7.38;;;;;;;;;;6157100;23;20028;-78
2022/03/27 04:54:01;;;;;;;16.00;8.48;;;;;;;;;;6148499;23;20025;-78
2022/03/27 04:56:31;;;;;;;14.82;8.80;;;;;;;;;;6155061;23;20472;-78
2022/03/27 04:58:59;;;;;;;12.55;8.15;;;;;;;;;;6153713;23;20480;-78
2022/03/27 05:01:27;;;;;;;19.52;10.57;;;;;;;;;;6125308;23;20033;-78
2022/03/27 05:03:55;;;;;;;17.83;9.43;;;;;;;;;;6157005;23;20017;-78
2022/03/27 05:06:23;;;;;;;15.15;9.45;;;;;;;;;;6147689;23;20029;-78
2022/03/27 05:08:51;;;;;;;14.18;9.25;;;;;;;;;;6152515;23;20060;-78
2022/03/27 05:11:19;;;;;;;27.30;12.23;;;;;;;;;;6156746;23;20017;-78
2022/03/27 05:13:47;;;;;;;31.55;14.45;;;;;;;;;;6150253;23;20030;-78
2022/03/27 05:16:15;;;;;;;30.42;13.38;;;;;;;;;;6156640;23;20013;-78
2022/03/27 05:18:43;;;;;;;20.17;13.27;;;;;;;;;;6157059;23;20029;-78
2022/03/27 05:21:11;;;;;;;15.20;10.15;;;;;;;;;;6152726;23;20029;-78
2022/03/27 05:23:39;;;;;;;18.92;13.65;;;;;;;;;;6156315;23;20029;-78
2022/03/27 05:26:07;;;;;;;18.10;10.85;;;;;;;;;;6148506;23;20029;-78
2022/03/27 05:28:35;;;;;;;16.30;11.85;;;;;;;;;;6154476;23;20030;-78
2022/03/27 05:31:08;;;;;;;24.13;15.43;;;;;;;;;;6156975;23;20028;-78
2022/03/27 05:33:37;;;;;;;15.85;10.93;;;;;;;;;;6150504;23;20025;-78
2022/03/27 05:36:07;;;;;;;17.65;10.18;;;;;;;;;;6157032;23;20370;-83
2022/03/27 05:38:40;;;;;;;20.27;12.13;;;;;;;;;;6118938;23;20030;-83
2022/03/27 05:41:09;;;;;;;32.95;11.68;;;;;;;;;;6126862;23;20428;-83
2022/03/27 05:43:37;;;;;;;30.55;13.07;;;;;;;;;;6096858;23;20052;-78
2022/03/27 05:46:05;;;;;;;20.67;11.90;;;;;;;;;;6148740;23;20029;-78
2022/03/27 05:48:35;;;;;;;21.52;11.20;;;;;;;;;;6154406;23;20765;-78
2022/03/27 05:51:03;;;;;;;35.47;15.52;;;;;;;;;;6158054;23;20010;-78
2022/03/27 05:53:31;;;;;;;23.67;14.23;;;;;;;;;;6152424;23;20468;-78
2022/03/27 05:56:00;;;;;;;22.05;13.02;;;;;;;;;;6159102;23;20014;-78
2022/03/27 05:58:28;;;;;;;24.63;10.57;;;;;;;;;;6148340;23;20044;-78
2022/03/27 06:00:56;;;;;;;24.33;12.32;;;;;;;;;;6155717;23;20030;-78
2022/03/27 06:03:24;;;;;;;22.00;15.25;;;;;;;;;;6158337;23;20020;-78
2022/03/27 06:05:52;;;;;;;20.13;16.92;;;;;;;;;;6151428;23;20030;-78
2022/03/27 06:08:20;;;;;;;23.42;14.13;;;;;;;;;;6156750;23;20014;-78
2022/03/27 06:10:49;;;;;;;23.98;15.18;;;;;;;;;;6158773;23;20036;-78
2022/03/27 06:13:19;;;;;;;20.75;13.80;;;;;;;;;;6154093;23;20029;-78
2022/03/27 06:15:47;;;;;;;21.95;13.13;;;;;;;;;;6158290;23;20021;-79
2022/03/27 06:18:15;;;;;;;32.88;17.13;;;;;;;;;;6148834;23;20037;-78
2022/03/27 06:20:43;;;;;;;25.08;13.10;;;;;;;;;;6156212;23;20025;-79
2022/03/27 06:23:13;;;;;;;26.05;13.35;;;;;;;;;;6158562;23;20018;-78
2022/03/27 06:25:41;;;;;;;22.33;12.95;;;;;;;;;;6151670;23;20029;-79
2022/03/27 06:28:09;;;;;;;25.10;14.45;;;;;;;;;;6132090;23;20017;-79
2022/03/27 06:30:37;;;;;;;20.15;14.40;;;;;;;;;;6148028;23;20025;-79
2022/03/27 06:33:05;;;;;;;22.25;13.23;;;;;;;;;;6154697;23;20032;-79
2022/03/27 06:35:34;;;;;;;20.77;12.55;;;;;;;;;;6158836;23;20017;-79
2022/03/27 06:38:02;;;;;;;25.58;13.98;;;;;;;;;;6149601;23;20030;-79
2022/03/27 06:40:29;;;;;;;21.38;14.73;;;;;;;;;;6156958;23;20079;-79
2022/03/27 06:42:57;;;;;;;22.50;13.73;;;;;;;;;;6158673;23;20019;-79
2022/03/27 06:45:26;;;;;;;26.58;17.88;;;;;;;;;;6152928;23;20397;-79
2022/03/27 06:47:54;;;;;;;22.95;13.68;;;;;;;;;;6157601;23;20014;-79
2022/03/27 06:50:22;;;;;;;27.20;14.77;;;;;;;;;;6148907;23;20022;-79
2022/03/27 06:52:51;;;;;;;19.08;13.40;;;;;;;;;;6154622;23;20026;-79
2022/03/27 06:55:20;;;;;;;24.67;14.75;;;;;;;;;;6132234;23;20520;-79
2022/03/27 06:57:52;;;;;;;18.45;10.60;;;;;;;;;;6147524;23;20025;-79
2022/03/27 07:03:09;;;;;;;23.80;14.80;;;;;;;;;;6157761;23;20013;-79
2022/03/27 07:05:42;;;;;;;26.35;15.00;;;;;;;;;;6152213;23;20762;-80
2022/03/27 07:08:11;;;;;;;25.50;13.70;;;;;;;;;;6157227;23;20014;-80
2022/03/27 07:10:41;;;;;;;34.05;16.30;;;;;;;;;;6147077;23;20026;-79
2022/03/27 07:13:10;;;;;;;22.02;14.50;;;;;;;;;;6153865;23;20028;-80
2022/03/27 07:15:39;;;;;;;25.77;13.95;;;;;;;;;;6158383;23;20024;-80
2022/03/27 07:18:07;;;;;;;23.35;12.50;;;;;;;;;;6149049;23;20037;-80
2022/03/27 07:20:37;;;;;;;22.63;15.52;;;;;;;;;;6155513;23;20017;-80
2022/03/27 07:23:06;;;;;;;18.00;11.90;;;;;;;;;;6156663;23;20013;-78
2022/03/27 07:25:35;;;;;;;24.77;12.75;;;;;;;;;;6125664;23;20444;-80
2022/03/27 07:28:07;;;;;;;21.58;14.65;;;;;;;;;;6158005;23;20022;-80
2022/03/27 07:30:36;;;;;;;28.13;15.20;;;;;;;;;;6147903;23;20684;-80
2022/03/27 07:33:04;;;;;;;46.92;14.45;;;;;;;;;;6153456;23;20028;-80
2022/03/27 07:35:32;;;;;;;27.30;14.82;;;;;;;;;;6158537;23;20018;-80
2022/03/27 07:38:01;;;;;;;28.88;14.05;;;;;;;;;;6149144;23;20017;-80
2022/03/27 07:40:29;;;;;;;28.33;12.02;;;;;;;;;;6156167;23;20013;-80
2022/03/27 07:42:59;;;;;;;21.73;9.93;;;;;;;;;;6157769;23;20037;-80
2022/03/27 07:45:33;;;;;;;17.88;11.73;;;;;;;;;;6147108;23;20022;-80
2022/03/27 07:48:01;;;;;;;20.42;12.40;;;;;;;;;;6157005;23;20013;-80
2022/03/27 07:50:33;;;;;;;19.77;11.60;;;;;;;;;;6147812;23;20369;-80
2022/03/27 07:53:01;;;;;;;19.95;11.63;;;;;;;;;;6153168;23;20520;-81
2022/03/27 07:55:51;;;;;;;16.42;12.02;;;;;;;;;;6096795;23;20610;-80
2022/03/27 07:58:19;;;;;;;14.23;8.55;;;;;;;;;;6148178;23;20607;-80
2022/03/27 08:00:47;;;;;;;21.45;12.95;;;;;;;;;;6155084;23;20591;-81
2022/03/27 08:03:15;;;;;;;20.20;11.02;;;;;;;;;;6157916;23;20020;-80
2022/03/27 08:05:43;;;;;;;18.70;12.70;;;;;;;;;;6151441;23;20017;-81
2022/03/27 08:08:11;;;;;;;22.10;11.88;;;;;;;;;;6156406;23;20330;-81
2022/03/27 08:10:39;;;;;;;19.92;12.88;;;;;;;;;;6146085;23;20036;-81
2022/03/27 08:13:07;;;;;;;24.48;14.25;;;;;;;;;;6153444;23;20381;-81
2022/03/27 08:15:36;;;;;;;23.08;16.83;;;;;;;;;;6120421;23;20022;-78
2022/03/27 08:18:05;;;;;;;21.83;14.00;;;;;;;;;;6119438;23;20026;-78
2022/03/27 08:20:33;;;;;;;18.10;13.48;;;;;;;;;;6126502;23;20022;-77
2022/03/27 08:23:17;;;;;;;24.55;14.70;;;;;;;;;;6127383;23;20014;-78
2022/03/27 08:30:01;;;;;;;24.15;14.48;;;;;;;;;;6120811;23;20064;-78
2022/03/27 08:32:35;;;;;;;24.75;14.43;;;;;;;;;;6091296;23;20044;-78
2022/03/27 08:35:08;;;;;;;15.88;10.38;;;;;;;;;;6128033;23;20018;-78
2022/03/27 08:37:36;;;;;;;17.73;11.68;;;;;;;;;;6119925;23;20056;-79
2022/03/27 08:40:04;;;;;;;17.48;11.18;;;;;;;;;;6127741;23;20346;-82
2022/03/27 08:42:32;;;;;;;22.42;13.93;;;;;;;;;;6117877;23;20029;-79
2022/03/27 08:45:01;;;;;;;18.88;12.05;;;;;;;;;;6124131;23;20033;-78
2022/03/27 08:47:29;;;;;;;20.98;13.75;;;;;;;;;;6127797;23;20025;-76
2022/03/27 08:50:00;;;;;;;27.25;13.35;;;;;;;;;;6090597;23;20040;-78
2022/03/27 08:52:31;;;;;;;15.80;10.68;;;;;;;;;;6125253;23;20018;-79
2022/03/27 08:55:04;;;;;;;24.92;13.55;;;;;;;;;;6128355;23;20014;-78
2022/03/27 08:57:51;;;;;;;19.02;13.13;;;;;;;;;;6095622;23;20033;-76
2022/03/27 09:00:21;;;;;;;15.00;13.15;;;;;;;;;;6099445;23;20013;-78
2022/03/27 09:03:02;;;;;;;20.58;13.02;;;;;;;;;;6116424;23;20842;-79
2022/03/27 09:05:30;;;;;;;20.42;15.02;;;;;;;;;;6121873;23;20026;-79
2022/03/27 09:08:02;;;;;;;25.98;14.88;;;;;;;;;;6126838;23;20018;-80
2022/03/27 09:10:30;;;;;;;15.85;11.38;;;;;;;;;;6117530;23;20029;-80
2022/03/27 09:12:58;;;;;;;19.02;11.52;;;;;;;;;;6123235;23;20025;-80
2022/03/27 09:15:26;;;;;;;19.85;11.75;;;;;;;;;;6118877;23;20028;-79
2022/03/27 09:17:58;;;;;;;20.52;12.40;;;;;;;;;;6119586;23;20041;-79
2022/03/27 09:20:34;;;;;;;22.60;15.10;;;;;;;;;;6125512;23;20021;-80
2022/03/27 09:23:11;;;;;;;18.60;15.88;;;;;;;;;;6127224;23;20021;-79
2022/03/27 09:25:58;;;;;;;23.13;13.05;;;;;;;;;;6120932;23;20037;-79
2022/03/27 09:28:27;;;;;;;23.95;12.90;;;;;;;;;;6127303;23;20029;-79
2022/03/27 09:30:56;;;;;;;24.85;14.55;;;;;;;;;;6126890;23;20037;-79
2022/03/27 09:33:34;;;;;;;19.85;13.23;;;;;;;;;;6120661;23;20041;-79
2022/03/27 09:36:09;;;;;;;19.63;13.27;;;;;;;;;;6129392;23;20029;-79
2022/03/27 09:38:38;;;;;;;20.48;13.85;;;;;;;;;;6118058;23;20357;-78
2022/03/27 09:41:10;;;;;;;19.50;11.90;;;;;;;;;;6125178;23;20521;-81
2022/03/27 09:43:38;;;;;;;18.92;11.20;;;;;;;;;;6129057;23;20025;-78
2022/03/27 09:46:06;;;;;;;16.25;10.57;;;;;;;;;;6120925;23;20366;-78
2022/03/27 09:48:34;;;;;;;21.58;11.70;;;;;;;;;;6126419;23;20488;-79
2022/03/27 09:51:03;;;;;;;22.88;13.38;;;;;;;;;;6129450;23;20018;-78
2022/03/27 09:53:35;;;;;;;16.77;11.50;;;;;;;;;;6122887;23;20041;-78
2022/03/27 09:56:04;;;;;;;22.38;12.35;;;;;;;;;;6129681;23;20472;-78
2022/03/27 09:58:38;;;;;;;19.92;12.10;;;;;;;;;;6093087;23;20025;-77
2022/03/27 10:01:08;;;;;;;23.00;12.90;;;;;;;;;;6125258;23;20026;-77
2022/03/27 10:03:57;;;;;;;26.65;12.25;;;;;;;;;;6046051;23;20359;-78
2022/03/27 10:06:33;;;;;;;20.15;13.15;;;;;;;;;;6094000;23;20034;-78
2022/03/27 10:09:01;;;;;;;22.58;13.98;;;;;;;;;;6124137;23;20507;-79
2022/03/27 10:11:29;;;;;;;20.38;12.65;;;;;;;;;;6128840;23;20018;-77
2022/03/27 10:13:58;;;;;;;23.75;14.60;;;;;;;;;;6095385;23;20034;-78
2022/03/27 10:16:30;;;;;;;19.77;13.43;;;;;;;;;;6101253;23;20022;-77
2022/03/27 10:18:59;;;;;;;21.73;14.13;;;;;;;;;;6128785;23;20021;-79
2022/03/27 10:21:30;;;;;;;22.60;12.73;;;;;;;;;;6123455;23;20021;-78
2022/03/27 10:24:05;;;;;;;23.80;11.77;;;;;;;;;;6117965;23;20842;-77
2022/03/27 10:26:38;;;;;;;25.08;15.18;;;;;;;;;;6118291;23;20082;-75
2022/03/27 10:29:07;;;;;;;21.08;12.48;;;;;;;;;;6098584;23;20029;-79
2022/03/27 10:31:35;;;;;;;19.63;13.77;;;;;;;;;;6128879;23;20018;-78
2022/03/27 10:34:05;;;;;;;22.90;13.88;;;;;;;;;;6120411;23;20029;-78
2022/03/27 10:36:42;;;;;;;20.40;12.23;;;;;;;;;;6101278;23;20025;-79
2022/03/27 10:39:14;;;;;;;16.17;9.82;;;;;;;;;;6127306;23;20018;-78
2022/03/27 10:41:45;;;;;;;21.40;14.45;;;;;;;;;;6122349;23;20029;-78
2022/03/27 10:44:32;;;;;;;21.52;11.88;;;;;;;;;;6128387;23;20018;-79
2022/03/27 10:47:15;;;;;;;19.80;13.40;;;;;;;;;;6093698;23;20037;-79
2022/03/27 10:50:08;;;;;;;21.48;12.80;;;;;;;;;;6119443;23;20037;-79
2022/03/27 10:52:44;;;;;;;10.93;9.07;;;;;;;;;;6117739;23;20760;-76
2022/03/27 10:55:14;;;;;;;25.48;12.57;;;;;;;;;;6127536;23;20014;-76
2022/03/27 10:57:51;;;;;;;13.63;9.55;;;;;;;;;;6121029;23;20189;-77
2022/03/27 11:00:39;;;;;;;17.10;11.43;;;;;;;;;;6127931;23;20063;-80
2022/03/27 11:03:08;;;;;;;24.40;11.68;;;;;;;;;;6102989;23;20018;-81
2022/03/27 11:05:36;;;;;;;27.65;13.88;;;;;;;;;;6122169;23;20034;-78
2022/03/27 11:08:16;;;;;;;20.80;14.48;;;;;;;;;;6127436;23;20025;-80
2022/03/27 11:10:55;;;;;;;13.50;7.70;;;;;;;;;;6091853;23;20037;-82
2022/03/27 11:13:26;;;;;;;21.05;13.05;;;;;;;;;;6122825;23;20462;-81
2022/03/27 11:16:03;;;;;;;38.35;17.77;;;;;;;;;;6128016;23;20014;-82
2022/03/27 11:18:39;;;;;;;28.45;15.70;;;;;;;;;;6118036;23;20500;-80
2022/03/27 11:21:08;;;;;;;68.38;24.52;;;;;;;;;;6123986;23;20022;-79
2022/03/27 11:23:37;;;;;;;20.35;12.57;;;;;;;;;;6101433;23;20013;-81
2022/03/27 11:26:27;;;;;;;20.52;11.68;;;;;;;;;;6094002;23;20030;-82
2022/03/27 11:28:59;;;;;;;20.88;12.88;;;;;;;;;;6067944;23;20033;-81
2022/03/27 11:31:27;;;;;;;22.88;12.68;;;;;;;;;;6092402;23;20022;-81
2022/03/27 11:34:16;;;;;;;22.38;12.18;;;;;;;;;;6094641;23;20342;-80
2022/03/27 11:36:45;;;;;;;20.35;11.52;;;;;;;;;;6067686;23;20033;-82
2022/03/27 11:39:31;;;;;;;19.50;12.30;;;;;;;;;;6100482;23;20021;-81
2022/03/27 11:42:18;;;;;;;17.83;10.93;;;;;;;;;;6120841;23;20030;-80
2022/03/27 11:47:37;;;;;;;23.08;13.10;;;;;;;;;;6099085;23;20014;-81
2022/03/27 11:50:05;;;;;;;15.93;13.95;;;;;;;;;;6090851;23;20026;-81
2022/03/27 11:52:44;;;;;;;23.08;12.43;;;;;;;;;;6061827;23;20034;-84
2022/03/27 11:55:13;;;;;;;17.75;10.20;;;;;;;;;;6099240;23;20044;-81
2022/03/27 11:57:57;;;;;;;32.83;15.40;;;;;;;;;;6065993;23;20029;-82
2022/03/27 12:00:34;;;;;;;23.30;11.65;;;;;;;;;;6097426;23;20041;-80
2022/03/27 12:03:04;;;;;;;20.58;14.00;;;;;;;;;;6098574;23;20026;-78
2022/03/27 12:05:34;;;;;;;16.83;10.13;;;;;;;;;;6093256;23;20030;-81
2022/03/27 12:08:02;;;;;;;21.40;9.27;;;;;;;;;;6061413;23;20250;-78
2022/03/27 12:10:41;;;;;;;22.20;12.70;;;;;;;;;;6086913;23;20481;-78
2022/03/27 12:13:11;;;;;;;41.17;12.10;;;;;;;;;;6093934;23;20041;-79
2022/03/27 12:15:49;;;;;;;14.82;8.73;;;;;;;;;;6089062;23;20023;-79
2022/03/27 12:18:28;;;;;;;15.18;10.00;;;;;;;;;;6088168;23;20033;-78
2022/03/27 12:20:56;;;;;;;19.40;12.93;;;;;;;;;;6094935;23;20030;-77
2022/03/27 12:23:26;;;;;;;23.48;14.20;;;;;;;;;;6092954;23;20014;-80
2022/03/27 12:26:00;;;;;;;11.73;8.40;;;;;;;;;;6091259;23;20041;-83
2022/03/27 12:31:21;;;;;;;22.35;11.80;;;;;;;;;;6097396;23;20014;-82
2022/03/27 12:33:50;;;;;;;20.65;13.88;;;;;;;;;;6066012;23;20033;-80
2022/03/27 12:36:22;;;;;;;19.80;12.40;;;;;;;;;;6097737;23;20025;-81
2022/03/27 12:38:50;;;;;;;22.30;11.52;;;;;;;;;;6097229;23;20026;-80
2022/03/27 12:41:42;;;;;;;18.90;10.85;;;;;;;;;;6093429;23;20026;-80
2022/03/27 12:44:12;;;;;;;14.98;10.32;;;;;;;;;;6099184;23;20034;-80
2022/03/27 12:46:50;;;;;;;19.98;9.30;;;;;;;;;;6062424;23;20462;-80
2022/03/27 12:49:18;;;;;;;23.83;11.23;;;;;;;;;;6093251;23;20030;-80
2022/03/27 12:51:56;;;;;;;20.23;10.52;;;;;;;;;;6098425;23;20022;-81
2022/03/27 12:54:24;;;;;;;17.55;11.77;;;;;;;;;;6088692;23;20034;-81
2022/03/27 12:56:56;;;;;;;18.40;13.10;;;;;;;;;;6095083;23;20042;-81
2022/03/27 12:59:24;;;;;;;19.33;10.43;;;;;;;;;;6098561;23;20711;-81
2022/03/27 13:01:52;;;;;;;15.60;11.15;;;;;;;;;;6091851;23;20037;-81
2022/03/27 13:04:21;;;;;;;16.50;12.05;;;;;;;;;;6097344;23;20030;-81
2022/03/27 13:06:58;;;;;;;18.73;11.98;;;;;;;;;;6099101;23;20022;-81
2022/03/27 13:09:27;;;;;;;19.13;10.70;;;;;;;;;;6092267;23;20327;-81
2022/03/27 13:11:55;;;;;;;24.48;10.70;;;;;;;;;;6098742;23;20021;-81
2022/03/27 13:14:26;;;;;;;16.60;8.60;;;;;;;;;;6089518;23;20027;-81
2022/03/27 13:16:58;;;;;;;16.85;10.55;;;;;;;;;;6095347;23;20027;-80
2022/03/27 13:19:43;;;;;;;21.10;13.25;;;;;;;;;;6038955;23;20644;-81
2022/03/27 13:22:13;;;;;;;21.08;11.60;;;;;;;;;;6064916;23;20503;-80
2022/03/27 13:24:42;;;;;;;16.77;8.07;;;;;;;;;;6070306;23;20039;-80
2022/03/27 13:27:10;;;;;;;19.20;10.48;;;;;;;;;;6072878;23;20025;-80
2022/03/27 13:29:38;;;;;;;19.67;12.27;;;;;;;;;;6092550;23;20022;-80
2022/03/27 13:32:07;;;;;;;8.52;7.53;;;;;;;;;;6099065;23;20022;-81
2022/03/27 13:34:38;;;;;;;18.02;10.38;;;;;;;;;;6087934;23;20022;-80
2022/03/27 13:37:06;;;;;;;21.80;14.32;;;;;;;;;;6094689;23;20038;-80
2022/03/27 13:39:34;;;;;;;20.70;9.00;;;;;;;;;;6097129;23;20042;-80
2022/03/27 13:44:48;;;;;;;18.48;10.07;;;;;;;;;;6062750;23;20355;-81
2022/03/27 13:47:17;;;;;;;14.82;9.70;;;;;;;;;;6073311;23;20465;-80
2022/03/27 13:49:45;;;;;;;15.32;9.38;;;;;;;;;;6091787;23;20023;-81
2022/03/27 13:52:15;;;;;;;11.93;8.05;;;;;;;;;;6072051;23;20022;-82
2022/03/27 13:54:44;;;;;;;17.38;10.05;;;;;;;;;;6062717;23;20018;-81
2022/03/27 13:57:12;;;;;;;13.45;7.78;;;;;;;;;;6093916;23;20034;-82
2022/03/27 13:59:40;;;;;;;18.95;10.35;;;;;;;;;;6098942;23;20019;-82
2022/03/27 14:02:09;;;;;;;13.38;8.90;;;;;;;;;;6090193;23;20027;-81
2022/03/27 14:04:38;;;;;;;19.48;12.13;;;;;;;;;;6095711;23;20667;-81
2022/03/27 14:07:07;;;;;;;17.73;8.27;;;;;;;;;;6098772;23;20018;-81
2022/03/27 14:09:35;;;;;;;20.90;10.00;;;;;;;;;;6092615;23;20560;-81
2022/03/27 14:12:03;;;;;;;14.55;10.18;;;;;;;;;;6074898;23;20050;-81
2022/03/27 14:14:31;;;;;;;14.02;7.30;;;;;;;;;;6090394;23;20061;-81
2022/03/27 14:17:01;;;;;;;12.75;7.38;;;;;;;;;;6096290;23;20038;-82
2022/03/27 14:19:32;;;;;;;14.48;7.30;;;;;;;;;;6099623;23;20018;-81
2022/03/27 14:22:05;;;;;;;16.48;8.77;;;;;;;;;;6040235;23;20022;-80
2022/03/27 14:24:34;;;;;;;15.45;8.85;;;;;;;;;;6070913;23;20023;-80
2022/03/27 14:27:02;;;;;;;14.10;7.82;;;;;;;;;;6100086;23;20602;-81
2022/03/27 14:29:30;;;;;;;13.65;8.48;;;;;;;;;;6068081;23;20643;-81
2022/03/27 14:31:58;;;;;;;12.15;6.63;;;;;;;;;;6064402;23;20022;-81
2022/03/27 14:34:26;;;;;;;14.77;12.30;;;;;;;;;;6063850;23;20038;-82
2022/03/27 14:36:54;;;;;;;12.43;7.70;;;;;;;;;;6096367;23;20027;-81
2022/03/27 14:39:23;;;;;;;11.48;8.48;;;;;;;;;;6098630;23;20342;-84
2022/03/27 14:41:51;;;;;;;11.77;8.63;;;;;;;;;;6092431;23;20042;-80
2022/03/27 14:44:20;;;;;;;14.32;9.70;;;;;;;;;;6072343;23;20018;-82
2022/03/27 14:46:48;;;;;;;11.75;7.25;;;;;;;;;;6099949;23;20019;-80
2022/03/27 14:49:17;;;;;;;12.20;6.10;;;;;;;;;;6093789;23;20033;-80
2022/03/27 14:51:46;;;;;;;21.85;10.15;;;;;;;;;;6099479;23;20019;-81
2022/03/27 14:57:00;;;;;;;10.88;7.03;;;;;;;;;;6095452;23;20034;-80
2022/03/27 14:59:28;;;;;;;18.13;10.70;;;;;;;;;;6099110;23;20021;-80
2022/03/27 15:01:56;;;;;;;12.25;8.00;;;;;;;;;;6091928;23;20354;-79
2022/03/27 15:04:33;;;;;;;14.82;9.18;;;;;;;;;;6072395;23;20021;-79
2022/03/27 15:07:06;;;;;;;7.97;7.15;;;;;;;;;;6099103;23;20014;-78
2022/03/27 15:09:39;;;;;;;14.90;9.32;;;;;;;;;;6063641;23;20026;-78
2022/03/27 15:12:08;;;;;;;24.58;6.45;;;;;;;;;;6099472;23;20014;-79